createdAt,value
2018-06-18T00:01:23.045Z,92.00
2018-06-18T00:03:51.491Z,92.10
2018-06-18T00:06:20.005Z,92.00
2018-06-18T00:08:48.492Z,92.00
2018-06-18T00:11:16.899Z,91.90
2018-06-18T00:13:45.451Z,91.70
2018-06-18T00:16:13.929Z,91.90
2018-06-18T00:18:42.530Z,92.00
2018-06-18T00:21:11.007Z,92.10
2018-06-18T00:23:39.373Z,92.20
2018-06-18T00:26:07.808Z,92.00
2018-06-18T00:28:36.248Z,92.00
2018-06-18T00:31:04.672Z,92.20
2018-06-18T00:33:33.082Z,92.60
2018-06-18T00:36:01.543Z,92.90
2018-06-18T00:38:30.147Z,93.00
2018-06-18T00:40:58.531Z,92.90
2018-06-18T00:43:26.987Z,92.90
2018-06-18T00:45:55.699Z,92.90
2018-06-18T00:48:24.184Z,92.80
2018-06-18T00:50:52.663Z,92.60
2018-06-18T00:53:21.078Z,92.60
2018-06-18T00:56:00.764Z,92.60
2018-06-18T00:58:29.735Z,92.60
2018-06-18T01:03:26.626Z,92.90
2018-06-18T01:05:55.465Z,93.10
2018-06-18T01:08:23.944Z,93.00
2018-06-18T01:10:52.415Z,93.00
2018-06-18T01:13:20.849Z,93.10
2018-06-18T01:15:49.435Z,93.10
2018-06-18T01:18:17.946Z,93.00
2018-06-18T01:20:46.354Z,92.80
2018-06-18T01:25:38.268Z,92.90
2018-06-18T01:28:07.226Z,92.80
2018-06-18T01:30:36.444Z,92.80
2018-06-18T01:33:05.500Z,93.00
2018-06-18T01:35:34.054Z,93.20
2018-06-18T01:38:02.589Z,93.30
2018-06-18T01:40:30.977Z,93.30
2018-06-18T01:42:59.483Z,93.30
2018-06-18T01:45:28.020Z,93.40
2018-06-18T01:47:57.130Z,93.30
2018-06-18T01:50:25.541Z,93.40
2018-06-18T01:52:53.946Z,93.50
2018-06-18T01:55:22.479Z,93.10
2018-06-18T01:57:50.914Z,93.00
2018-06-18T02:00:19.429Z,93.10
2018-06-18T02:02:48.158Z,92.90
2018-06-18T02:07:44.676Z,92.90
2018-06-18T02:10:13.115Z,92.90
2018-06-18T02:12:41.804Z,93.00
2018-06-18T02:15:10.271Z,93.20
2018-06-18T02:17:38.668Z,93.60
2018-06-18T02:20:07.125Z,93.30
2018-06-18T02:22:35.799Z,93.40
2018-06-18T02:25:04.334Z,93.00
2018-06-18T02:27:38.123Z,93.00
2018-06-18T02:30:12.199Z,93.10
2018-06-18T02:32:45.948Z,93.00
2018-06-18T02:35:19.756Z,92.90
2018-06-18T02:37:53.732Z,93.00
2018-06-18T02:40:27.668Z,92.80
2018-06-18T02:42:56.279Z,92.80
2018-06-18T02:45:24.834Z,93.10
2018-06-18T02:47:53.232Z,93.30
2018-06-18T02:50:21.656Z,93.40
2018-06-18T02:52:50.049Z,93.60
2018-06-18T02:55:18.920Z,93.40
2018-06-18T02:57:47.963Z,93.40
2018-06-18T03:00:16.631Z,93.50
2018-06-18T03:02:45.791Z,93.70
2018-06-18T03:05:14.623Z,93.60
2018-06-18T03:07:43.160Z,93.60
2018-06-18T03:10:11.657Z,93.50
2018-06-18T03:12:40.149Z,93.60
2018-06-18T03:15:08.572Z,93.60
2018-06-18T03:17:37.047Z,93.50
2018-06-18T03:20:10.956Z,93.50
2018-06-18T03:22:44.755Z,93.40
2018-06-18T03:25:18.443Z,93.30
2018-06-18T03:27:52.182Z,93.30
2018-06-18T03:30:20.670Z,93.60
2018-06-18T03:32:49.982Z,93.30
2018-06-18T03:35:18.428Z,93.40
2018-06-18T03:37:47.060Z,93.70
2018-06-18T03:40:15.632Z,94.00
2018-06-18T03:42:44.748Z,94.20
2018-06-18T03:45:16.028Z,94.30
2018-06-18T03:47:44.523Z,94.50
2018-06-18T03:50:12.917Z,94.30
2018-06-18T03:52:41.475Z,94.10
2018-06-18T03:55:16.947Z,93.90
2018-06-18T03:57:45.515Z,94.00
2018-06-18T04:00:14.017Z,93.70
2018-06-18T04:03:03.758Z,93.60
2018-06-18T04:05:37.696Z,93.80
2018-06-18T04:08:11.217Z,94.00
2018-06-18T04:10:45.181Z,94.10
2018-06-18T04:13:13.688Z,94.20
2018-06-18T04:15:42.264Z,94.20
2018-06-18T04:18:10.682Z,94.20
2018-06-18T04:20:44.839Z,94.00
2018-06-18T04:23:13.324Z,94.00
2018-06-18T04:25:41.839Z,94.10
2018-06-18T04:28:10.454Z,94.20
2018-06-18T04:30:38.854Z,94.00
2018-06-18T04:33:08.045Z,93.70
2018-06-18T04:35:36.491Z,93.60
2018-06-18T04:38:05.371Z,93.60
2018-06-18T04:40:33.992Z,93.90
2018-06-18T04:43:07.936Z,93.40
2018-06-18T04:45:44.919Z,93.50
2018-06-18T04:48:18.640Z,93.10
2018-06-18T04:50:52.396Z,93.10
2018-06-18T04:53:20.947Z,92.50
2018-06-18T04:55:49.757Z,91.90
2018-06-18T04:58:18.312Z,92.00
2018-06-18T05:01:00.812Z,91.70
2018-06-18T05:03:29.362Z,91.40
2018-06-18T05:05:58.271Z,91.30
2018-06-18T05:08:43.528Z,91.20
2018-06-18T05:11:12.086Z,91.50
2018-06-18T05:13:40.472Z,90.70
2018-06-18T05:16:08.923Z,90.40
2018-06-18T05:18:37.329Z,90.00
2018-06-18T05:21:05.835Z,90.00
2018-06-18T05:23:34.498Z,89.90
2018-06-18T05:26:02.964Z,89.20
2018-06-18T05:28:31.450Z,89.50
2018-06-18T05:31:00.126Z,88.70
2018-06-18T05:33:28.711Z,88.90
2018-06-18T05:35:57.679Z,88.30
2018-06-18T05:38:30.581Z,87.60
2018-06-18T05:40:59.699Z,87.60
2018-06-18T05:43:28.687Z,87.30
2018-06-18T05:45:57.272Z,87.60
2018-06-18T05:48:25.708Z,87.30
2018-06-18T05:53:22.690Z,87.60
2018-06-18T05:55:51.927Z,87.10
2018-06-18T05:58:20.407Z,86.90
2018-06-18T06:00:49.080Z,85.60
2018-06-18T06:03:17.735Z,85.20
2018-06-18T06:05:46.190Z,84.10
2018-06-18T06:08:14.698Z,83.40
2018-06-18T06:10:43.263Z,83.30
2018-06-18T06:13:11.911Z,83.20
2018-06-18T06:15:40.588Z,83.10
2018-06-18T06:18:09.131Z,82.20
2018-06-18T06:20:41.152Z,82.50
2018-06-18T06:23:09.604Z,82.50
2018-06-18T06:25:38.185Z,82.10
2018-06-18T06:28:06.713Z,82.20
2018-06-18T06:30:35.272Z,81.00
2018-06-18T06:33:03.820Z,81.80
2018-06-18T06:35:37.715Z,81.00
2018-06-18T06:38:06.408Z,79.50
2018-06-18T06:40:34.854Z,77.50
2018-06-18T06:43:03.463Z,76.90
2018-06-18T06:45:31.923Z,76.00
2018-06-18T06:48:00.371Z,76.30
2018-06-18T06:50:28.812Z,74.80
2018-06-18T06:52:57.290Z,74.30
2018-06-18T06:55:25.947Z,74.80
2018-06-18T06:57:54.666Z,72.80
2018-06-18T07:00:23.223Z,72.10
2018-06-18T07:02:51.835Z,72.40
2018-06-18T07:05:20.356Z,73.10
2018-06-18T07:07:48.963Z,73.40
2018-06-18T07:10:17.483Z,72.50
2018-06-18T07:12:46.138Z,71.40
2018-06-18T07:15:14.941Z,70.30
2018-06-18T07:17:43.807Z,71.80
2018-06-18T07:20:12.490Z,70.60
2018-06-18T07:22:41.077Z,70.90
2018-06-18T07:25:09.671Z,70.10
2018-06-18T07:27:38.262Z,68.50
2018-06-18T07:30:07.508Z,69.00
2018-06-18T07:32:36.018Z,66.90
2018-06-18T07:35:04.653Z,65.30
2018-06-18T07:37:33.174Z,65.10
2018-06-18T07:40:01.717Z,64.30
2018-06-18T07:42:30.320Z,64.70
2018-06-18T07:44:58.941Z,64.50
2018-06-18T07:47:27.388Z,63.50
2018-06-18T07:49:55.857Z,63.80
2018-06-18T07:52:24.328Z,63.70
2018-06-18T07:54:52.840Z,61.60
2018-06-18T07:57:21.408Z,64.50
2018-06-18T07:59:50.014Z,65.50
2018-06-18T08:02:18.438Z,61.10
2018-06-18T08:04:47.143Z,59.80
2018-06-18T08:07:15.624Z,60.30
2018-06-18T08:09:44.374Z,59.80
2018-06-18T08:12:12.742Z,61.00
2018-06-18T08:14:41.148Z,60.90
2018-06-18T08:19:38.159Z,60.90
2018-06-18T08:22:07.065Z,59.00
2018-06-18T08:24:35.608Z,57.60
2018-06-18T08:27:04.203Z,57.90
2018-06-18T08:29:32.847Z,58.20
2018-06-18T08:32:01.342Z,58.70
2018-06-18T08:34:29.858Z,58.90
2018-06-18T08:36:58.439Z,59.50
2018-06-18T08:39:27.035Z,59.10
2018-06-18T08:41:55.608Z,59.60
2018-06-18T08:44:24.149Z,59.50
2018-06-18T08:46:52.579Z,59.80
2018-06-18T08:49:21.095Z,57.50
2018-06-18T08:51:54.746Z,57.40
2018-06-18T08:54:29.232Z,55.40
2018-06-18T08:57:03.089Z,54.50
2018-06-18T08:59:36.861Z,52.70
2018-06-18T09:02:05.476Z,55.30
2018-06-18T09:04:39.131Z,55.10
2018-06-18T09:07:16.034Z,55.00
2018-06-18T09:09:45.145Z,54.00
2018-06-18T09:12:13.632Z,56.20
2018-06-18T09:14:42.423Z,53.70
2018-06-18T09:17:11.231Z,53.00
2018-06-18T09:19:39.751Z,54.10
2018-06-18T09:22:08.308Z,54.60
2018-06-18T09:24:36.816Z,53.10
2018-06-18T09:27:10.684Z,53.30
2018-06-18T09:29:39.284Z,54.90
2018-06-18T09:32:14.272Z,54.70
2018-06-18T09:34:43.979Z,51.70
2018-06-18T09:37:12.409Z,50.60
2018-06-18T09:39:41.019Z,49.90
2018-06-18T09:42:09.450Z,50.30
2018-06-18T09:44:37.929Z,48.70
2018-06-18T09:47:06.411Z,50.50
2018-06-18T09:49:40.241Z,49.70
2018-06-18T09:52:14.127Z,50.60
2018-06-18T09:54:48.108Z,50.90
2018-06-18T09:57:27.961Z,50.20
2018-06-18T10:00:05.256Z,50.00
2018-06-18T10:05:02.036Z,49.20
2018-06-18T10:07:30.540Z,50.50
2018-06-18T10:09:59.007Z,47.60
2018-06-18T10:12:27.598Z,47.70
2018-06-18T10:14:56.037Z,47.90
2018-06-18T10:17:24.599Z,47.30
2018-06-18T10:19:53.115Z,47.10
2018-06-18T10:22:21.780Z,47.40
2018-06-18T10:24:50.305Z,48.80
2018-06-18T10:27:19.001Z,48.00
2018-06-18T10:29:47.568Z,48.40
2018-06-18T10:32:21.321Z,48.50
2018-06-18T10:34:55.111Z,47.60
2018-06-18T10:37:28.808Z,48.90
2018-06-18T10:40:02.468Z,48.30
2018-06-18T10:42:36.183Z,49.30
2018-06-18T10:45:04.934Z,48.90
2018-06-18T10:47:33.428Z,47.20
2018-06-18T10:50:01.987Z,48.20
2018-06-18T10:52:30.443Z,48.40
2018-06-18T10:54:58.966Z,48.80
2018-06-18T10:57:27.533Z,47.90
2018-06-18T10:59:56.060Z,48.20
2018-06-18T11:02:24.588Z,46.70
2018-06-18T11:05:02.191Z,47.70
2018-06-18T11:07:31.647Z,45.40
2018-06-18T11:10:00.424Z,43.00
2018-06-18T11:12:29.049Z,45.80
2018-06-18T11:14:57.579Z,45.40
2018-06-18T11:18:30.349Z,44.30
2018-06-18T11:21:04.314Z,43.60
2018-06-18T11:26:11.578Z,42.40
2018-06-18T11:28:40.087Z,41.90
2018-06-18T11:31:08.534Z,43.60
2018-06-18T11:33:37.099Z,44.90
2018-06-18T11:36:05.926Z,44.80
2018-06-18T11:38:34.496Z,46.20
2018-06-18T11:41:02.932Z,44.60
2018-06-18T11:43:31.570Z,43.70
2018-06-18T11:46:00.028Z,42.40
2018-06-18T11:48:28.599Z,43.10
2018-06-18T11:50:57.178Z,44.40
2018-06-18T11:53:25.612Z,44.80
2018-06-18T11:55:54.073Z,44.30
2018-06-18T11:58:28.137Z,43.60
2018-06-18T12:01:01.863Z,43.50
2018-06-18T12:03:35.667Z,45.00
2018-06-18T12:06:09.668Z,44.00
2018-06-18T12:08:44.026Z,46.00
2018-06-18T12:11:12.520Z,45.40
2018-06-18T12:16:09.400Z,45.70
2018-06-18T12:18:38.001Z,46.40
2018-06-18T12:21:07.216Z,47.10
2018-06-18T12:23:35.796Z,42.30
2018-06-18T12:26:04.332Z,42.00
2018-06-18T12:28:33.905Z,39.80
2018-06-18T12:33:30.549Z,42.00
2018-06-18T12:35:59.009Z,41.50
2018-06-18T12:38:27.926Z,41.00
2018-06-18T12:43:26.671Z,40.50
2018-06-18T12:46:01.047Z,40.40
2018-06-18T12:48:34.820Z,42.60
2018-06-18T12:51:08.855Z,40.00
2018-06-18T12:53:42.622Z,39.80
2018-06-18T12:56:16.633Z,39.10
2018-06-18T12:58:45.091Z,38.90
2018-06-18T13:01:15.474Z,40.40
2018-06-18T13:03:43.921Z,39.30
2018-06-18T13:06:12.425Z,38.90
2018-06-18T13:08:40.860Z,38.00
2018-06-18T13:11:09.526Z,38.40
2018-06-18T13:13:38.044Z,39.40
2018-06-18T13:16:06.606Z,41.00
2018-06-18T13:18:35.065Z,41.50
2018-06-18T13:21:03.682Z,41.80
2018-06-18T13:23:32.411Z,42.80
2018-06-18T13:26:00.943Z,44.60
2018-06-18T13:28:29.400Z,43.70
2018-06-18T13:30:58.020Z,44.10
2018-06-18T13:33:26.587Z,41.70
2018-06-18T13:35:55.072Z,43.70
2018-06-18T13:38:29.087Z,43.90
2018-06-18T13:41:02.797Z,44.20
2018-06-18T13:43:36.552Z,44.40
2018-06-18T13:46:10.628Z,43.60
2018-06-18T13:48:49.062Z,42.50
2018-06-18T13:51:17.565Z,42.70
2018-06-18T13:53:46.175Z,42.40
2018-06-18T13:56:14.624Z,42.80
2018-06-18T13:58:43.197Z,43.90
2018-06-18T14:01:12.644Z,45.80
2018-06-18T14:03:41.104Z,44.30
2018-06-18T14:06:09.869Z,43.30
2018-06-18T14:08:38.308Z,47.20
2018-06-18T14:11:07.210Z,50.40
2018-06-18T14:13:35.891Z,50.10
2018-06-18T14:16:05.093Z,50.40
2018-06-18T14:18:33.667Z,50.50
2018-06-18T14:21:02.416Z,50.00
2018-06-18T14:23:31.127Z,51.50
2018-06-18T14:25:59.641Z,50.80
2018-06-18T14:31:01.980Z,48.30
2018-06-18T14:33:35.915Z,47.80
2018-06-18T14:36:09.719Z,47.20
2018-06-18T14:38:43.593Z,49.00
2018-06-18T14:41:12.031Z,49.20
2018-06-18T14:43:40.571Z,51.70
2018-06-18T14:46:09.341Z,49.70
2018-06-18T14:48:37.809Z,50.90
2018-06-18T14:51:06.399Z,50.70
2018-06-18T14:53:34.930Z,49.70
2018-06-18T14:56:11.766Z,46.00
2018-06-18T14:58:41.195Z,40.80
2018-06-18T15:01:09.653Z,36.40
2018-06-18T15:03:38.257Z,36.10
2018-06-18T15:06:06.943Z,33.20
2018-06-18T15:08:35.764Z,30.60
2018-06-18T15:11:04.578Z,28.60
2018-06-18T15:13:33.298Z,30.50
2018-06-18T15:16:07.317Z,32.10
2018-06-18T15:18:35.839Z,35.90
2018-06-18T15:21:05.015Z,37.70
2018-06-18T15:23:33.619Z,37.40
2018-06-18T15:26:02.270Z,38.00
2018-06-18T15:28:30.975Z,40.80
2018-06-18T15:30:59.504Z,43.80
2018-06-18T15:33:28.263Z,47.50
2018-06-18T15:35:56.725Z,46.60
2018-06-18T15:38:25.417Z,47.30
2018-06-18T15:40:53.951Z,47.50
2018-06-18T15:43:22.499Z,48.30
2018-06-18T15:45:51.080Z,49.50
2018-06-18T15:48:19.532Z,51.00
2018-06-18T15:50:47.964Z,50.80
2018-06-18T15:53:16.549Z,52.50
2018-06-18T15:55:45.292Z,50.50
2018-06-18T15:58:14.094Z,50.70
2018-06-18T16:00:43.301Z,50.20
2018-06-18T16:03:11.809Z,51.10
2018-06-18T16:05:40.346Z,52.20
2018-06-18T16:08:09.035Z,51.60
2018-06-18T16:10:37.656Z,52.80
2018-06-18T16:13:06.148Z,53.00
2018-06-18T16:15:34.687Z,53.10
2018-06-18T16:18:03.136Z,53.30
2018-06-18T16:20:31.619Z,53.40
2018-06-18T16:23:00.335Z,53.30
2018-06-18T16:25:28.820Z,53.20
2018-06-18T16:27:57.415Z,53.70
2018-06-18T16:30:26.099Z,53.00
2018-06-18T16:32:54.606Z,53.10
2018-06-18T16:35:23.678Z,51.80
2018-06-18T16:37:52.176Z,52.00
2018-06-18T16:40:20.939Z,52.60
2018-06-18T16:42:49.470Z,53.20
2018-06-18T16:45:18.287Z,53.60
2018-06-18T16:47:46.950Z,53.70
2018-06-18T16:50:15.679Z,53.80
2018-06-18T16:52:44.310Z,54.10
2018-06-18T16:55:12.807Z,53.00
2018-06-18T16:57:41.442Z,52.60
2018-06-18T17:00:10.465Z,52.40
2018-06-18T17:02:39.462Z,50.60
2018-06-18T17:05:08.299Z,51.40
2018-06-18T17:07:36.964Z,50.40
2018-06-18T17:10:05.460Z,48.30
2018-06-18T17:12:34.375Z,49.50
2018-06-18T17:15:02.968Z,49.90
2018-06-18T17:17:31.521Z,50.90
2018-06-18T17:20:00.089Z,49.90
2018-06-18T17:22:28.840Z,47.00
2018-06-18T17:24:57.316Z,46.50
2018-06-18T17:27:25.771Z,46.50
2018-06-18T17:29:54.377Z,47.30
2018-06-18T17:32:22.954Z,46.90
2018-06-18T17:34:51.478Z,46.00
2018-06-18T17:37:20.091Z,46.40
2018-06-18T17:39:48.548Z,45.90
2018-06-18T17:42:17.524Z,45.80
2018-06-18T17:44:46.393Z,43.30
2018-06-18T17:47:15.107Z,43.40
2018-06-18T17:49:43.799Z,45.40
2018-06-18T17:52:12.251Z,44.60
2018-06-18T17:54:40.959Z,44.50
2018-06-18T17:57:09.466Z,43.80
2018-06-18T17:59:38.334Z,42.80
2018-06-18T18:02:06.885Z,43.70
2018-06-18T18:04:35.407Z,43.00
2018-06-18T18:09:32.297Z,45.50
2018-06-18T18:12:00.824Z,47.90
2018-06-18T18:14:29.494Z,51.50
2018-06-18T18:16:58.320Z,53.70
2018-06-18T18:19:26.950Z,54.40
2018-06-18T18:21:55.460Z,55.60
2018-06-18T18:24:24.031Z,56.10
2018-06-18T18:26:52.544Z,57.50
2018-06-18T18:31:49.423Z,59.90
2018-06-18T18:34:18.368Z,59.70
2018-06-18T18:36:46.961Z,60.80
2018-06-18T18:39:15.702Z,60.40
2018-06-18T18:41:44.468Z,60.90
2018-06-18T18:44:13.128Z,60.90
2018-06-18T18:46:41.783Z,61.90
2018-06-18T18:49:10.522Z,61.80
2018-06-18T18:51:39.396Z,63.70
2018-06-18T18:54:12.951Z,65.80
2018-06-18T18:56:53.232Z,65.30
2018-06-18T19:01:55.084Z,68.20
2018-06-18T19:04:30.293Z,70.40
2018-06-18T19:06:58.779Z,71.40
2018-06-18T19:09:30.940Z,72.50
2018-06-18T19:11:59.591Z,73.30
2018-06-18T19:14:28.180Z,73.70
2018-06-18T19:16:56.710Z,74.80
2018-06-18T19:19:28.123Z,75.90
2018-06-18T19:21:56.895Z,77.10
2018-06-18T19:24:25.515Z,78.30
2018-06-18T19:26:54.333Z,78.80
2018-06-18T19:29:23.665Z,79.60
2018-06-18T19:31:53.030Z,80.30
2018-06-18T19:34:24.829Z,81.10
2018-06-18T19:36:55.102Z,81.30
2018-06-18T19:39:29.029Z,81.40
2018-06-18T19:41:57.662Z,82.40
2018-06-18T19:44:26.709Z,82.90
2018-06-18T19:47:33.011Z,83.50
2018-06-18T19:50:01.655Z,83.70
2018-06-18T19:52:30.229Z,83.70
2018-06-18T19:55:01.984Z,84.30
2018-06-18T20:02:27.128Z,85.80
2018-06-18T20:04:55.686Z,86.50
2018-06-18T20:07:25.442Z,86.70
2018-06-18T20:09:54.272Z,87.10
2018-06-18T20:12:22.798Z,87.50
2018-06-18T20:14:51.478Z,88.00
2018-06-18T20:17:20.187Z,88.00
2018-06-18T20:19:48.754Z,87.80
2018-06-18T20:22:17.447Z,88.40
2018-06-18T20:24:46.890Z,88.60
2018-06-18T20:27:15.512Z,88.50
2018-06-18T20:29:44.035Z,88.80
2018-06-18T20:32:12.866Z,88.80
2018-06-18T20:34:42.554Z,89.20
2018-06-18T20:37:11.169Z,90.00
2018-06-18T20:42:08.501Z,90.50
2018-06-18T20:44:37.167Z,90.70
2018-06-18T20:47:05.919Z,90.80
2018-06-18T20:49:34.545Z,90.50
2018-06-18T20:52:03.159Z,90.30
2018-06-18T20:54:31.672Z,90.50
2018-06-18T20:57:00.150Z,91.00
2018-06-18T20:59:28.892Z,90.80
2018-06-18T21:01:57.443Z,90.80
2018-06-18T21:04:26.286Z,91.10
2018-06-18T21:06:54.733Z,91.50
2018-06-18T21:09:23.236Z,91.40
2018-06-18T21:11:51.876Z,91.50
2018-06-18T21:14:20.456Z,91.50
2018-06-18T21:16:49.471Z,91.60
2018-06-18T21:19:18.053Z,91.40
2018-06-18T21:21:46.557Z,91.40
2018-06-18T21:24:15.049Z,91.50
2018-06-18T21:26:43.485Z,91.40
2018-06-18T21:29:11.935Z,91.50
2018-06-18T21:31:40.354Z,91.40
2018-06-18T21:34:08.889Z,91.50
2018-06-18T21:36:37.408Z,91.50
2018-06-18T21:39:08.649Z,91.50
2018-06-18T21:41:37.127Z,91.60
2018-06-18T21:44:07.837Z,91.80
2018-06-18T21:46:36.516Z,92.00
2018-06-18T21:49:05.181Z,92.00
2018-06-18T21:51:33.648Z,92.30
2018-06-18T21:54:02.312Z,92.30
2018-06-18T21:56:30.894Z,92.20
2018-06-18T21:58:59.457Z,92.40
2018-06-18T22:01:39.268Z,92.10
2018-06-18T22:04:07.755Z,92.30
2018-06-18T22:06:36.671Z,92.30
2018-06-18T22:09:16.099Z,92.10
2018-06-18T22:11:47.360Z,92.10
2018-06-18T22:14:15.845Z,92.00
2018-06-18T22:16:44.551Z,92.00
2018-06-18T22:19:12.980Z,92.20
2018-06-18T22:21:41.428Z,92.10
2018-06-18T22:24:09.921Z,92.20
2018-06-18T22:26:38.471Z,92.40
2018-06-18T22:29:07.193Z,92.50
2018-06-18T22:31:36.016Z,92.50
2018-06-18T22:34:04.576Z,92.40
2018-06-18T22:36:33.444Z,92.40
2018-06-18T22:39:01.972Z,92.10
2018-06-18T22:41:30.447Z,92.30
2018-06-18T22:43:59.018Z,92.30
2018-06-18T22:46:27.589Z,92.60
2018-06-18T22:48:56.182Z,92.70
2018-06-18T22:51:24.680Z,92.90
2018-06-18T22:53:53.182Z,92.90
2018-06-18T22:56:21.781Z,93.00
2018-06-18T22:58:50.233Z,93.30
2018-06-18T23:01:23.204Z,93.10
2018-06-18T23:03:51.853Z,93.00
2018-06-18T23:06:20.315Z,93.30
2018-06-18T23:08:48.905Z,93.00
2018-06-18T23:11:17.394Z,93.40
2018-06-18T23:13:46.031Z,93.20
2018-06-18T23:16:14.579Z,92.90
2018-06-18T23:18:43.179Z,92.60
2018-06-18T23:21:11.713Z,92.70
2018-06-18T23:23:40.300Z,93.00
2018-06-18T23:26:08.895Z,93.20
2018-06-18T23:28:43.213Z,93.30
2018-06-18T23:31:12.139Z,93.30
2018-06-18T23:36:09.078Z,93.00
2018-06-18T23:38:37.743Z,92.80
2018-06-18T23:41:06.552Z,92.80
2018-06-18T23:43:35.106Z,93.00
2018-06-18T23:46:03.896Z,92.80
2018-06-18T23:48:32.624Z,92.70
2018-06-18T23:53:29.440Z,93.00
2018-06-18T23:55:57.984Z,93.10
2018-06-18T23:58:26.602Z,93.10
